Time,TemperatureF,DewpointF,PressureIn,WindDirection,WindDirectionDegrees,WindSpeedMPH,WindSpeedGustMPH,Humidity,HourlyPrecipIn,Conditions,Clouds,dailyrainin,SoftwareType,DateUTC
2013-03-30 00:02:00,54.0,39.0,-100.00,WNW,287,10.0,13.0,56,-99.99,,,-99.99,,2013-03-30 07:02:00,
2013-03-30 00:12:00,54.0,39.0,-100.00,WNW,287,10.0,13.0,56,-99.99,,,-99.99,,2013-03-30 07:12:00,
2013-03-30 01:02:00,49.0,38.0,-100.00,West,270,7.0,9.0,65,-99.99,,,-99.99,,2013-03-30 08:02:00,
2013-03-30 01:12:00,49.0,38.0,-100.00,West,270,7.0,9.0,65,-99.99,,,-99.99,,2013-03-30 08:12:00,
2013-03-30 02:02:00,48.0,37.0,-100.00,West,274,6.0,8.0,65,-99.99,,,-99.99,,2013-03-30 09:02:00,
2013-03-30 02:12:00,48.0,37.0,-100.00,West,274,6.0,8.0,65,-99.99,,,-99.99,,2013-03-30 09:12:00,
2013-03-30 03:02:00,48.0,37.0,-100.00,West,281,6.0,7.0,65,-99.99,,,-99.99,,2013-03-30 10:02:00,
2013-03-30 03:12:00,48.0,37.0,-100.00,West,281,6.0,7.0,65,-99.99,,,-99.99,,2013-03-30 10:12:00,
2013-03-30 04:03:00,48.0,36.0,-100.00,North,4,3.0,7.0,62,-99.99,,,-99.99,,2013-03-30 11:03:00,
2013-03-30 04:12:00,48.0,36.0,-100.00,North,4,3.0,7.0,62,-99.99,,,-99.99,,2013-03-30 11:12:00,
2013-03-30 05:02:00,46.0,37.0,-100.00,SE,144,5.0,7.0,70,-99.99,,,-99.99,,2013-03-30 12:02:00,
2013-03-30 05:12:00,46.0,37.0,-100.00,SE,144,5.0,7.0,70,-99.99,,,-99.99,,2013-03-30 12:12:00,
2013-03-30 06:02:00,44.0,38.0,-100.00,North,354,1.0,3.0,79,-99.99,,,-99.99,,2013-03-30 13:02:00,
2013-03-30 06:12:00,44.0,38.0,-100.00,North,354,1.0,3.0,79,-99.99,,,-99.99,,2013-03-30 13:12:00,
2013-03-30 07:02:00,44.0,38.0,-100.00,SE,132,2.0,3.0,79,-99.99,,,-99.99,,2013-03-30 14:02:00,
2013-03-30 07:11:00,44.0,38.0,-100.00,SE,132,2.0,3.0,79,-99.99,,,-99.99,,2013-03-30 14:11:00,
2013-03-30 08:02:00,43.0,38.0,-100.00,ESE,119,2.0,3.0,82,-99.99,,,-99.99,,2013-03-30 15:02:00,
2013-03-30 08:12:00,43.0,38.0,-100.00,ESE,119,2.0,3.0,82,-99.99,,,-99.99,,2013-03-30 15:12:00,
2013-03-30 09:03:00,51.0,40.0,-100.00,NNW,331,1.0,2.0,65,-99.99,,,-99.99,,2013-03-30 16:03:00,
2013-03-30 10:02:00,53.0,39.0,-100.00,North,356,2.0,3.0,58,-99.99,,,-99.99,,2013-03-30 17:02:00,
2013-03-30 10:13:00,53.0,39.0,-100.00,North,356,2.0,3.0,58,-99.99,,,-99.99,,2013-03-30 17:13:00,
2013-03-30 11:02:00,56.0,39.0,-100.00,North,356,3.0,5.0,52,-99.99,,,-99.99,,2013-03-30 18:02:00,
2013-03-30 11:12:00,56.0,39.0,-100.00,North,356,3.0,5.0,52,-99.99,,,-99.99,,2013-03-30 18:12:00,
2013-03-30 12:02:00,60.0,38.0,-100.00,NE,43,5.0,8.0,43,-99.99,,,-99.99,,2013-03-30 19:02:00,
2013-03-30 12:12:00,60.0,38.0,-100.00,NE,43,5.0,8.0,43,-99.99,,,-99.99,,2013-03-30 19:12:00,
2013-03-30 13:02:00,63.0,37.0,-100.00,NNW,331,3.0,8.0,37,-99.99,,,-99.99,,2013-03-30 20:02:00,
2013-03-30 13:12:00,63.0,37.0,-100.00,NNW,331,3.0,8.0,37,-99.99,,,-99.99,,2013-03-30 20:12:00,
2013-03-30 14:02:00,67.0,37.0,-100.00,ENE,64,2.0,5.0,33,-99.99,,,-99.99,,2013-03-30 21:02:00,
2013-03-30 14:12:00,67.0,37.0,-100.00,ENE,64,2.0,5.0,33,-99.99,,,-99.99,,2013-03-30 21:12:00,
2013-03-30 15:02:00,69.0,35.0,-100.00,NE,38,3.0,10.0,28,-99.99,,,-99.99,,2013-03-30 22:02:00,
2013-03-30 15:12:00,69.0,35.0,-100.00,NE,38,3.0,10.0,28,-99.99,,,-99.99,,2013-03-30 22:12:00,
2013-03-30 16:02:00,70.0,32.0,-100.00,NE,41,3.0,9.0,24,-99.99,,,-99.99,,2013-03-30 23:02:00,
2013-03-30 16:12:00,70.0,32.0,-100.00,NE,41,3.0,9.0,24,-99.99,,,-99.99,,2013-03-30 23:12:00,
2013-03-30 17:02:00,70.0,31.0,-100.00,East,92,6.0,12.0,23,-99.99,,,-99.99,,2013-03-31 00:02:00,
2013-03-30 17:12:00,70.0,31.0,-100.00,East,92,6.0,12.0,23,-99.99,,,-99.99,,2013-03-31 00:12:00,
2013-03-30 18:02:00,71.0,31.0,-100.00,East,81,3.0,8.0,22,-99.99,,,-99.99,,2013-03-31 01:02:00,
2013-03-30 18:12:00,71.0,31.0,-100.00,East,81,3.0,8.0,22,-99.99,,,-99.99,,2013-03-31 01:12:00,
2013-03-30 19:02:00,70.0,31.0,-100.00,NNE,25,5.0,10.0,23,-99.99,,,-99.99,,2013-03-31 02:02:00,
2013-03-30 19:12:00,70.0,31.0,-100.00,NNE,25,5.0,10.0,23,-99.99,,,-99.99,,2013-03-31 02:12:00,
2013-03-30 20:02:00,68.0,33.0,-100.00,NNE,17,3.0,3.0,27,-99.99,,,-99.99,,2013-03-31 03:02:00,
2013-03-30 20:12:00,68.0,33.0,-100.00,NNE,17,3.0,3.0,27,-99.99,,,-99.99,,2013-03-31 03:12:00,
2013-03-30 22:02:00,59.0,33.0,-100.00,NW,306,3.0,3.0,37,-99.99,,,-99.99,,2013-03-31 05:02:00,
2013-03-30 22:12:00,59.0,33.0,-100.00,NW,306,3.0,3.0,37,-99.99,,,-99.99,,2013-03-31 05:12:00,
2013-03-30 23:02:00,53.0,35.0,-100.00,WSW,257,9.0,10.0,50,-99.99,,,-99.99,,2013-03-31 06:02:00,
2013-03-30 23:12:00,53.0,35.0,-100.00,WSW,257,9.0,10.0,50,-99.99,,,-99.99,,2013-03-31 06:12:00,